Time;durP1;ratioP1;P1;durP2;ratioP2;P2;SDS_P1;SDS_P2;PMS_P1;PMS_P2;Temp;Humidity;BMP_temperature;BMP_pressure;BME280_temperature;BME280_humidity;BME280_pressure;Samples;Min_cycle;Max_cycle;Signal;HPM_P1;HPM_P2
2021/09/14 00:02:17;;;;;;;29.13;17.40;;;;;;;17.35;69.65;100448.23;126325;1099;104660;-79
2021/09/14 00:04:48;;;;;;;34.27;18.23;;;;;;;17.35;69.57;100448.23;126379;1099;104168;-79
2021/09/14 00:07:19;;;;;;;33.33;17.47;;;;;;;17.34;69.54;100443.82;126332;1099;104453;-79
2021/09/14 00:09:49;;;;;;;34.63;17.97;;;;;;;17.33;69.37;100443.81;126311;1099;104307;-79
2021/09/14 00:12:20;;;;;;;29.00;17.10;;;;;;;17.31;69.90;100445.54;126334;1099;104232;-78
2021/09/14 00:14:51;;;;;;;30.80;17.70;;;;;;;17.29;69.59;100450.83;126321;1099;104287;-79
2021/09/14 00:17:22;;;;;;;29.63;17.77;;;;;;;17.28;69.27;100443.78;126350;1099;104246;-78
2021/09/14 00:19:53;;;;;;;29.50;18.00;;;;;;;17.28;69.76;100451.73;126269;1099;104149;-79
2021/09/14 00:22:23;;;;;;;30.63;16.70;;;;;;;17.28;69.76;100453.47;126372;1099;104469;-79
2021/09/14 00:24:54;;;;;;;31.53;17.90;;;;;;;17.26;69.48;100450.80;126276;1099;104213;-78
2021/09/14 00:27:25;;;;;;;27.97;17.33;;;;;;;17.27;69.92;100446.41;126342;1099;104143;-78
2021/09/14 00:29:56;;;;;;;30.73;18.07;;;;;;;17.28;69.57;100441.13;126273;1099;104141;-77
2021/09/14 00:32:26;;;;;;;28.03;17.83;;;;;;;17.29;70.10;100444.66;126344;1099;104301;-80
2021/09/14 00:38:22;;;;;;;30.13;18.07;;;;;;;17.18;70.30;100453.40;125265;1102;105480;-78
2021/09/14 00:40:53;;;;;;;30.67;18.43;;;;;;;17.15;70.03;100452.50;125173;1102;104608;-78
2021/09/14 00:43:26;;;;;;;32.77;18.70;;;;;;;17.12;70.09;100445.39;125163;1102;104251;-79
2021/09/14 01:16:55;;;;;;;36.17;22.17;;;;;;;16.51;71.42;100461.58;125188;1102;105524;-78
2021/09/14 01:19:29;;;;;;;40.63;23.03;;;;;;;16.51;71.17;100462.45;125217;1102;104582;-79
2021/09/14 01:21:58;;;;;;;;;;;;;;;16.51;71.26;100462.45;125255;1102;104226;-78
2021/09/14 01:24:29;;;;;;;36.10;21.07;;;;;;;16.51;71.67;100459.81;125170;1102;104259;-78
2021/09/14 01:27:06;;;;;;;35.00;21.43;;;;;;;16.54;71.18;100467.80;125175;1102;103191;-78
2021/09/14 01:32:26;;;;;;;34.27;21.23;;;;;;;16.58;71.99;100463.44;125200;1102;104631;-80
2021/09/14 01:35:03;;;;;;;37.43;21.53;;;;;;;16.60;71.55;100466.10;125155;1102;104163;-78
2021/09/14 01:37:35;;;;;;;36.37;21.47;;;;;;;16.61;72.52;100465.20;125165;1102;104161;-79
2021/09/14 01:40:08;;;;;;;36.30;21.87;;;;;;;16.62;72.37;100472.30;125131;1102;104235;-79
2021/09/14 01:42:40;;;;;;;32.73;21.30;;;;;;;16.63;72.62;100466.13;125141;1102;104229;-79
2021/09/14 01:45:13;;;;;;;32.30;20.77;;;;;;;16.61;72.47;100468.77;125202;1102;104175;-78
2021/09/14 01:47:45;;;;;;;35.87;21.40;;;;;;;16.61;72.82;100476.72;125175;1102;104156;-77
2021/09/14 01:50:17;;;;;;;34.33;21.27;;;;;;;16.61;72.88;100478.45;125126;1102;104155;-80
2021/09/14 01:52:48;;;;;;;37.47;22.00;;;;;;;16.60;72.97;100488.17;125194;1102;104351;-79
2021/09/14 01:55:20;;;;;;;35.10;22.20;;;;;;;16.58;72.99;100489.92;125121;1102;104243;-78
2021/09/14 01:57:54;;;;;;;33.58;20.97;;;;;;;16.57;73.39;100489.91;125148;1102;104222;-78
2021/09/14 02:00:27;;;;;;;44.87;23.73;;;;;;;16.57;73.87;100493.44;125201;1102;104137;-77
2021/09/14 02:03:18;;;;;;;46.03;23.80;;;;;;;16.54;72.95;100494.28;125215;1102;104208;-78
2021/09/14 02:39:07;;;;;;;38.87;23.63;;;;;;;16.26;74.38;100502.78;125133;1102;104259;-80
2021/09/14 02:41:50;;;;;;;36.10;21.63;;;;;;;16.23;74.59;100510.69;125171;1102;104309;-78
2021/09/14 02:44:35;;;;;;;36.33;21.90;;;;;;;16.20;74.47;100513.30;125186;1102;104282;-78
2021/09/14 03:00:38;;;;;;;34.30;21.43;;;;;;;16.23;74.59;100530.09;125137;1102;104159;-78
2021/09/14 03:03:08;;;;;;;34.33;22.17;;;;;;;16.22;74.81;100523.05;125204;1102;104243;-78
2021/09/14 03:05:39;;;;;;;35.87;22.13;;;;;;;16.23;74.78;100526.57;125129;1102;104274;-77
2021/09/14 03:08:11;;;;;;;35.97;21.73;;;;;;;16.22;75.15;100522.14;125176;1102;104198;-80
2021/09/14 03:10:42;;;;;;;38.63;22.10;;;;;;;16.22;75.63;100522.14;125270;1102;104156;-79
2021/09/14 03:13:13;;;;;;;35.27;22.33;;;;;;;16.21;75.50;100537.14;125172;1102;104380;-79
2021/09/14 03:15:44;;;;;;;40.00;22.30;;;;;;;16.20;75.95;100530.06;124913;1102;104169;-78
2021/09/14 03:18:14;;;;;;;33.70;20.87;;;;;;;16.20;75.80;100534.47;125130;1102;104146;-78
2021/09/14 03:20:46;;;;;;;39.33;21.93;;;;;;;16.21;75.13;100536.27;125179;1102;104150;-78
2021/09/14 03:23:17;;;;;;;35.97;21.53;;;;;;;16.20;75.85;100543.30;125185;1102;104226;-79
2021/09/14 03:25:48;;;;;;;32.77;20.83;;;;;;;16.22;75.62;100538.02;125234;1102;104144;-78
2021/09/14 03:28:19;;;;;;;34.93;21.70;;;;;;;16.21;75.67;100541.55;125222;1102;104153;-79
2021/09/14 03:30:50;;;;;;;36.90;21.30;;;;;;;16.17;76.02;100538.87;124958;1102;109228;-80
2021/09/14 03:33:22;;;;;;;36.47;21.43;;;;;;;16.17;76.20;100543.25;124935;1102;104236;-78
2021/09/14 03:35:53;;;;;;;34.43;21.30;;;;;;;16.16;76.08;100547.67;125227;1102;104149;-79
2021/09/14 03:38:25;;;;;;;35.97;21.40;;;;;;;16.16;76.01;100541.50;125098;1102;104294;-78
2021/09/14 03:40:56;;;;;;;36.80;22.73;;;;;;;16.16;75.93;100549.44;125084;1102;104283;-78
2021/09/14 03:43:26;;;;;;;36.50;21.17;;;;;;;16.17;75.38;100540.61;124941;1102;104896;-77
2021/09/14 03:45:57;;;;;;;33.37;20.80;;;;;;;16.19;76.05;100546.83;125158;1102;104621;-78
2021/09/14 03:48:29;;;;;;;39.23;21.57;;;;;;;16.21;75.43;100545.09;125211;1102;104211;-78
2021/09/14 03:51:00;;;;;;;35.23;20.60;;;;;;;16.24;75.69;100546.89;125133;1102;104245;-79
2021/09/14 03:53:32;;;;;;;36.83;22.60;;;;;;;16.27;75.81;100563.70;125175;1102;104264;-79
2021/09/14 03:56:05;;;;;;;38.23;21.90;;;;;;;16.29;75.50;100555.78;125215;1102;104255;-78
2021/09/14 03:58:40;;;;;;;38.73;21.17;;;;;;;16.29;76.06;100550.48;125152;1102;104257;-79
2021/09/14 04:01:14;;;;;;;36.63;21.27;;;;;;;16.33;75.77;100552.28;125074;1102;104290;-78
2021/09/14 04:03:55;;;;;;;36.17;20.00;;;;;;;16.37;75.94;100561.17;125159;1102;104171;-79
2021/09/14 04:09:14;;;;;;;34.83;20.67;;;;;;;16.42;75.63;100562.99;125128;1102;104162;-79
2021/09/14 04:11:55;;;;;;;34.90;21.47;;;;;;;16.44;76.43;100555.06;125136;1102;104146;-78
2021/09/14 04:14:29;;;;;;;33.37;20.93;;;;;;;16.48;76.02;100560.42;125193;1102;104179;-78
2021/09/14 04:17:02;;;;;;;34.67;20.57;;;;;;;16.52;76.32;100564.90;125086;1102;104299;-78
2021/09/14 04:19:33;;;;;;;36.07;21.23;;;;;;;16.56;76.22;100567.59;125193;1102;104207;-77
2021/09/14 04:22:07;;;;;;;33.40;19.80;;;;;;;16.62;75.73;100570.31;125103;1102;108036;-81
2021/09/14 04:24:41;;;;;;;32.37;19.97;;;;;;;16.65;76.41;100573.00;124948;1102;104137;-81
2021/09/14 04:27:12;;;;;;;36.23;20.70;;;;;;;16.69;76.35;100567.75;125002;1102;104188;-78
2021/09/14 04:29:43;;;;;;;37.43;20.60;;;;;;;16.74;75.88;100567.81;125204;1102;104251;-80
2021/09/14 04:32:14;;;;;;;34.73;20.43;;;;;;;16.78;76.64;100569.63;125187;1102;104169;-79
2021/09/14 04:34:45;;;;;;;31.97;19.80;;;;;;;16.81;75.84;100568.76;125217;1102;104586;-81
2021/09/14 04:37:17;;;;;;;35.13;20.27;;;;;;;16.82;76.22;100573.20;125192;1102;104195;-79
2021/09/14 04:39:47;;;;;;;35.37;19.80;;;;;;;16.84;76.79;100572.35;125171;1102;104156;-78
2021/09/14 04:42:19;;;;;;;39.30;20.77;;;;;;;16.87;76.63;100580.34;125142;1102;104742;-76
2021/09/14 04:44:50;;;;;;;35.77;20.37;;;;;;;16.91;76.59;100572.42;124966;1102;104169;-78
2021/09/14 04:47:21;;;;;;;35.05;19.35;;;;;;;16.94;76.37;100577.76;125155;1102;104257;-77
2021/09/14 04:49:51;;;;;;;34.03;19.30;;;;;;;16.96;76.35;100583.98;125286;1101;104148;-78
2021/09/14 04:52:23;;;;;;;35.03;19.83;;;;;;;16.97;76.39;100583.09;125173;1102;104192;-78
2021/09/14 04:54:54;;;;;;;35.87;20.83;;;;;;;16.98;76.57;100590.19;125129;1102;104201;-78
2021/09/14 04:57:27;;;;;;;34.17;19.30;;;;;;;16.97;76.79;100591.05;125134;1102;104184;-78
2021/09/14 04:59:58;;;;;;;34.48;19.73;;;;;;;16.96;76.37;100583.98;125144;1102;104255;-78
2021/09/14 05:02:31;;;;;;;35.70;20.23;;;;;;;16.97;76.87;100585.74;124930;1102;104274;-79
2021/09/14 05:05:02;;;;;;;32.87;19.53;;;;;;;17.00;76.63;100583.13;125145;1102;104192;-77
2021/09/14 05:07:33;;;;;;;33.30;20.10;;;;;;;17.06;76.47;100583.20;125087;1102;104159;-78
2021/09/14 05:10:06;;;;;;;38.47;20.13;;;;;;;17.09;76.59;100572.63;124967;1102;104153;-79
2021/09/14 05:12:40;;;;;;;33.70;18.70;;;;;;;17.15;76.57;100583.29;125120;1102;104602;-79
2021/09/14 05:15:13;;;;;;;33.60;19.67;;;;;;;17.20;77.32;100578.95;125108;1102;104169;-77
2021/09/14 05:17:56;;;;;;;32.77;19.63;;;;;;;17.24;77.01;100586.03;124904;1102;104140;-78
2021/09/14 05:20:42;;;;;;;34.38;19.15;;;;;;;17.34;77.26;100592.34;125058;1102;104172;-78
2021/09/14 05:23:16;;;;;;;33.33;19.67;;;;;;;17.41;76.99;100586.20;125009;1102;104169;-77
2021/09/14 05:25:53;;;;;;;33.47;19.20;;;;;;;17.49;77.24;100585.39;125131;1102;104242;-77
2021/09/14 05:28:28;;;;;;;36.17;20.13;;;;;;;17.56;77.14;100590.77;125175;1102;104149;-77
2021/09/14 05:31:04;;;;;;;32.13;20.27;;;;;;;17.67;76.83;100598.81;124957;1103;104242;-78
2021/09/14 05:33:36;;;;;;;33.30;19.57;;;;;;;17.77;76.55;100594.45;124936;1102;104363;-78
2021/09/14 05:36:07;;;;;;;;;;;;;;;17.84;76.64;100601.60;125051;1102;104277;-78
2021/09/14 05:38:43;;;;;;;33.67;19.67;;;;;;;17.93;76.66;100593.70;124830;1102;104217;-78
2021/09/14 05:41:15;;;;;;;33.77;18.60;;;;;;;18.03;76.67;100607.05;124867;1102;104287;-78
2021/09/14 05:43:47;;;;;;;34.63;18.73;;;;;;;18.10;76.66;100603.56;124818;1102;104213;-77
2021/09/14 05:46:21;;;;;;;36.88;20.27;;;;;;;18.13;76.26;100608.90;125037;1102;104201;-79
2021/09/14 05:48:58;;;;;;;32.97;18.77;;;;;;;18.21;76.55;100609.83;125081;1101;104143;-78
2021/09/14 05:51:31;;;;;;;33.43;19.47;;;;;;;18.27;76.48;100607.20;125090;1102;104252;-79
2021/09/14 05:54:07;;;;;;;39.07;20.47;;;;;;;18.36;76.15;100613.48;125145;1102;104249;-79
2021/09/14 05:56:43;;;;;;;32.47;18.93;;;;;;;18.41;76.19;100617.91;125087;1102;104238;-77
2021/09/14 05:59:17;;;;;;;32.47;18.80;;;;;;;18.47;76.36;100615.29;124854;1102;104355;-79
2021/09/14 06:01:50;;;;;;;31.42;19.67;;;;;;;18.49;76.22;100624.14;124788;1102;104236;-79
2021/09/14 06:04:23;;;;;;;34.00;18.57;;;;;;;18.52;76.32;100622.41;124913;1105;109440;-77
2021/09/14 06:06:58;;;;;;;33.87;20.10;;;;;;;18.55;76.16;100622.42;124876;1105;104222;-78
2021/09/14 06:09:35;;;;;;;34.50;19.20;;;;;;;18.58;76.11;100609.16;124841;1106;104172;-79
2021/09/14 06:12:06;;;;;;;;;;;;;;;18.64;76.39;100618.03;124819;1105;104312;-80
2021/09/14 06:14:40;;;;;;;32.37;19.23;;;;;;;18.73;75.49;100608.31;124873;1105;104179;-77
2021/09/14 06:17:21;;;;;;;31.33;18.27;;;;;;;18.82;75.91;100611.00;124850;1105;104221;-79
2021/09/14 06:19:55;;;;;;;32.10;17.93;;;;;;;18.92;75.81;100615.52;124902;1105;104261;-77
2021/09/14 06:22:28;;;;;;;34.80;18.80;;;;;;;19.03;76.20;100621.75;124862;1105;104255;-79
2021/09/14 06:25:04;;;;;;;37.97;19.17;;;;;;;19.12;75.54;100612.92;124843;1105;104230;-77
2021/09/14 06:27:37;;;;;;;30.50;17.97;;;;;;;19.24;75.37;100614.70;125008;1102;104233;-79
2021/09/14 06:30:13;;;;;;;33.80;17.87;;;;;;;19.37;75.21;100623.61;124948;1102;104278;-77
2021/09/14 06:32:46;;;;;;;31.00;17.57;;;;;;;19.47;75.68;100621.84;125036;1102;104246;-78
2021/09/14 06:35:21;;;;;;;31.40;17.90;;;;;;;19.58;75.25;100623.61;124887;1105;104408;-77
2021/09/14 06:37:54;;;;;;;33.20;18.37;;;;;;;19.69;75.09;100620.95;125081;1102;104222;-78
2021/09/14 06:40:32;;;;;;;34.20;18.60;;;;;;;19.82;74.88;100613.00;125204;1102;104197;-77
2021/09/14 06:43:06;;;;;;;30.40;16.23;;;;;;;19.92;74.15;100612.12;125159;1102;104610;-78
2021/09/14 06:45:51;;;;;;;35.93;18.13;;;;;;;20.01;75.08;100613.89;125137;1102;104184;-76
2021/09/14 06:48:37;;;;;;;33.57;17.70;;;;;;;20.10;73.64;100609.43;125105;1102;104219;-75
2021/09/14 06:51:09;;;;;;;31.73;16.97;;;;;;;20.20;74.75;100614.75;125164;1102;104169;-77
2021/09/14 06:53:42;;;;;;;31.23;17.52;;;;;;;20.31;73.25;100618.27;125271;1102;104184;-76
2021/09/14 06:56:17;;;;;;;33.43;17.37;;;;;;;20.43;73.51;100618.23;125210;1102;104147;-77
2021/09/14 06:58:49;;;;;;;30.57;17.13;;;;;;;20.60;74.21;100620.84;125303;1102;104303;-77
2021/09/14 07:01:26;;;;;;;33.10;17.77;;;;;;;20.70;73.10;100616.39;125183;1102;104235;-75
2021/09/14 07:04:00;;;;;;;28.67;16.73;;;;;;;20.81;73.65;100614.55;125217;1100;104300;-76
2021/09/14 07:06:35;;;;;;;32.57;16.93;;;;;;;20.95;73.03;100617.16;125234;1102;104301;-78
2021/09/14 07:09:07;;;;;;;28.40;16.70;;;;;;;21.11;72.89;100617.95;125133;1102;104155;-77
2021/09/14 07:11:42;;;;;;;30.27;17.37;;;;;;;21.32;73.06;100618.73;125221;1102;104424;-78
2021/09/14 07:14:15;;;;;;;29.17;17.70;;;;;;;21.57;72.62;100619.47;125279;1102;104209;-76
2021/09/14 07:16:47;;;;;;;29.33;16.90;;;;;;;21.82;72.21;100617.48;125259;1102;104152;-76
2021/09/14 07:19:36;;;;;;;29.53;17.70;;;;;;;22.07;71.17;100619.93;126229;1099;104155;-75
2021/09/14 07:22:07;;;;;;;29.07;16.07;;;;;;;22.33;71.25;100619.70;126119;1099;104162;-77
2021/09/14 07:24:39;;;;;;;32.23;17.17;;;;;;;22.54;69.94;100620.34;126032;1099;104174;-77
2021/09/14 07:27:11;;;;;;;30.30;16.47;;;;;;;22.73;70.34;100615.66;125269;1102;104337;-76
2021/09/14 07:29:48;;;;;;;28.53;16.33;;;;;;;22.80;69.62;100628.06;126041;1099;104153;-78
2021/09/14 07:32:19;;;;;;;27.73;16.90;;;;;;;22.79;68.34;100627.15;126097;1099;104255;-78
2021/09/14 07:34:54;;;;;;;29.07;17.10;;;;;;;22.73;68.55;100634.38;126011;1099;104181;-76
2021/09/14 07:37:31;;;;;;;31.30;17.03;;;;;;;22.66;68.39;100632.67;126137;1099;104147;-78
2021/09/14 07:40:08;;;;;;;29.13;17.70;;;;;;;22.65;69.00;100628.25;125315;1099;104230;-77
2021/09/14 07:42:41;;;;;;;33.57;16.80;;;;;;;22.64;68.51;100630.05;125345;1102;104158;-78
2021/09/14 07:45:16;;;;;;;29.57;16.10;;;;;;;22.65;68.34;100633.59;125219;1099;105531;-77
2021/09/14 07:47:48;;;;;;;27.40;16.80;;;;;;;22.59;67.81;100635.45;126124;1099;104261;-78
2021/09/14 07:50:21;;;;;;;26.33;16.10;;;;;;;22.54;68.16;100633.72;126176;1099;104188;-79
2021/09/14 07:52:57;;;;;;;27.37;17.00;;;;;;;22.56;67.84;100631.91;125328;1102;104534;-78
2021/09/14 07:55:28;;;;;;;31.85;17.75;;;;;;;22.56;67.48;100622.11;125138;1102;104140;-78
2021/09/14 07:58:03;;;;;;;29.10;16.95;;;;;;;22.59;67.79;100621.17;125322;1102;104194;-77
2021/09/14 08:00:39;;;;;;;31.27;16.77;;;;;;;22.62;67.12;100626.48;125316;1099;104200;-77
2021/09/14 08:03:11;;;;;;;25.70;15.87;;;;;;;22.66;67.33;100624.64;125220;1099;104222;-77
2021/09/14 08:05:45;;;;;;;26.70;15.87;;;;;;;22.77;67.04;100620.07;126206;1098;104261;-78
2021/09/14 08:08:19;;;;;;;27.80;16.47;;;;;;;22.84;67.00;100619.06;126282;1099;104284;-79
2021/09/14 08:10:52;;;;;;;27.23;16.33;;;;;;;22.95;67.12;100622.51;126142;1099;104245;-77
2021/09/14 08:13:26;;;;;;;31.93;16.57;;;;;;;23.05;66.41;100620.58;126236;1099;104213;-78
2021/09/14 08:15:58;;;;;;;28.45;15.80;;;;;;;23.15;65.83;100622.27;126166;1099;104137;-77
2021/09/14 08:18:32;;;;;;;26.67;15.93;;;;;;;23.23;66.30;100616.77;126322;1099;104155;-80
2021/09/14 08:21:09;;;;;;;29.60;16.83;;;;;;;23.31;65.98;100619.34;126129;1099;104140;-79
2021/09/14 08:23:43;;;;;;;31.17;16.97;;;;;;;23.33;65.32;100621.09;126254;1099;104227;-80
2021/09/14 08:26:16;;;;;;;27.33;16.10;;;;;;;23.37;64.91;100616.57;126228;1099;104153;-78
2021/09/14 08:28:50;;;;;;;30.10;15.50;;;;;;;23.46;65.24;100615.55;126266;1099;104194;-78
2021/09/14 08:31:28;;;;;;;28.03;15.27;;;;;;;23.48;64.41;100611.95;126044;1099;104172;-77
2021/09/14 08:34:02;;;;;;;28.17;15.27;;;;;;;23.54;64.49;100610.08;126102;1099;104175;-77
2021/09/14 08:36:39;;;;;;;27.23;15.27;;;;;;;23.60;64.32;100610.86;126127;1099;104140;-77
2021/09/14 08:39:11;;;;;;;27.07;15.63;;;;;;;23.65;63.91;100603.65;126265;1099;104159;-77
2021/09/14 08:41:47;;;;;;;26.80;15.60;;;;;;;23.73;63.63;100602.61;126293;1099;104171;-77
2021/09/14 08:44:21;;;;;;;26.30;15.30;;;;;;;23.77;63.19;100607.02;126307;1099;104357;-77
2021/09/14 08:47:00;;;;;;;27.80;15.70;;;;;;;23.82;62.86;100614.05;126170;1099;104145;-77
2021/09/14 08:49:33;;;;;;;26.90;15.50;;;;;;;23.78;63.09;100604.31;126144;1099;104139;-79
2021/09/14 08:52:06;;;;;;;26.50;15.37;;;;;;;23.78;63.51;100606.09;126202;1099;104270;-78
2021/09/14 08:54:40;;;;;;;27.27;15.50;;;;;;;23.83;63.60;100606.92;126291;1098;104191;-79
2021/09/14 08:57:15;;;;;;;30.13;16.50;;;;;;;23.87;62.77;100597.92;126165;1099;104146;-79
2021/09/14 08:59:50;;;;;;;26.07;14.87;;;;;;;23.96;63.16;100596.89;126033;1099;104365;-81
2021/09/14 09:02:24;;;;;;;26.65;15.95;;;;;;;24.07;62.74;100599.37;126107;1099;104243;-77
2021/09/14 09:05:00;;;;;;;28.10;16.00;;;;;;;24.12;62.53;100605.52;126136;1099;104734;-78
2021/09/14 09:07:34;;;;;;;31.07;16.27;;;;;;;24.10;62.07;100599.32;126208;1099;104239;-81
2021/09/14 09:10:16;;;;;;;26.90;15.90;;;;;;;24.11;62.30;100593.06;126140;1099;104252;-77
2021/09/14 09:12:52;;;;;;;28.80;16.50;;;;;;;24.17;61.79;100603.67;126256;1099;104307;-78
2021/09/14 09:15:33;;;;;;;26.17;14.87;;;;;;;24.19;62.00;100600.02;126164;1099;104248;-78
2021/09/14 09:18:09;;;;;;;27.47;16.57;;;;;;;24.18;61.88;100595.59;126034;1099;104146;-79
2021/09/14 09:20:44;;;;;;;27.67;16.13;;;;;;;24.17;61.71;100600.98;126146;1099;104179;-78
2021/09/14 09:23:23;;;;;;;26.73;16.03;;;;;;;24.12;62.14;100595.70;126156;1099;104147;-78
2021/09/14 09:26:08;;;;;;;28.50;15.57;;;;;;;24.15;61.87;100594.75;126135;1099;104140;-77
2021/09/14 09:28:42;;;;;;;25.13;15.00;;;;;;;24.18;61.64;100587.55;126308;1099;104171;-78
2021/09/14 09:31:21;;;;;;;27.27;14.70;;;;;;;24.18;61.15;100600.05;126243;1099;104239;-77
2021/09/14 09:34:05;;;;;;;28.87;15.13;;;;;;;24.18;60.84;100592.91;126091;1099;104201;-76
2021/09/14 09:36:40;;;;;;;28.47;15.03;;;;;;;24.25;60.79;100590.98;126182;1099;104166;-76
2021/09/14 09:39:15;;;;;;;24.13;13.90;;;;;;;24.34;60.92;100584.54;126253;1099;105543;-77
2021/09/14 09:41:55;;;;;;;26.23;14.03;;;;;;;24.40;61.09;100593.37;126252;1098;104325;-76
2021/09/14 09:44:31;;;;;;;22.43;13.07;;;;;;;24.49;60.67;100586.05;126129;1099;104173;-77
2021/09/14 09:47:03;;;;;;;24.20;13.33;;;;;;;24.52;60.26;100589.53;126284;1098;104281;-78
2021/09/14 09:49:37;;;;;;;25.27;14.13;;;;;;;24.57;59.54;100586.80;126076;1098;104241;-79
2021/09/14 09:52:12;;;;;;;23.77;13.03;;;;;;;24.65;59.84;100587.54;125300;1099;104397;-77
2021/09/14 09:54:47;;;;;;;24.23;13.17;;;;;;;24.72;59.78;100588.28;126296;1099;104205;-76
2021/09/14 09:57:23;;;;;;;25.33;12.20;;;;;;;24.78;59.52;100585.47;126238;1099;104165;-80
2021/09/14 09:59:56;;;;;;;20.80;11.23;;;;;;;24.85;59.13;100580.84;126218;1099;104144;-78
2021/09/14 10:02:31;;;;;;;19.73;11.30;;;;;;;24.99;58.74;100581.41;126172;1099;104172;-77
2021/09/14 10:05:12;;;;;;;22.07;11.07;;;;;;;25.12;58.71;100579.34;126260;1099;104188;-77
2021/09/14 10:07:47;;;;;;;20.23;10.57;;;;;;;25.24;58.57;100584.44;126206;1098;104191;-77
2021/09/14 10:10:21;;;;;;;20.07;11.07;;;;;;;25.36;57.81;100582.39;126092;1098;110178;-78
2021/09/14 10:13:02;;;;;;;19.20;10.60;;;;;;;25.47;56.75;100586.56;125927;1099;104203;-77
2021/09/14 10:15:45;;;;;;;20.47;10.43;;;;;;;25.57;56.84;100579.19;125896;1099;104200;-77
2021/09/14 10:18:28;;;;;;;19.70;10.17;;;;;;;25.60;56.32;100583.58;125834;1099;104377;-79
2021/09/14 10:21:02;;;;;;;18.40;10.70;;;;;;;25.67;56.54;100571.77;125947;1099;104271;-80
2021/09/14 10:23:41;;;;;;;17.17;9.73;;;;;;;25.84;56.32;100568.64;125835;1099;104191;-78
2021/09/14 10:26:15;;;;;;;20.87;9.93;;;;;;;26.00;55.73;100577.20;126033;1099;104255;-77
2021/09/14 10:28:48;;;;;;;21.83;10.60;;;;;;;26.11;55.03;100571.53;125993;1098;104204;-77
2021/09/14 10:31:25;;;;;;;18.80;10.48;;;;;;;26.25;55.07;100568.45;126000;1099;106940;-78
2021/09/14 10:34:08;;;;;;;21.55;10.75;;;;;;;26.35;53.82;100560.09;125896;1099;104300;-78
2021/09/14 10:36:42;;;;;;;20.10;11.00;;;;;;;26.55;54.15;100564.89;125976;1099;104291;-79
2021/09/14 10:39:24;;;;;;;19.77;10.77;;;;;;;26.60;52.89;100564.75;125965;1099;104153;-77
2021/09/14 10:41:56;;;;;;;19.17;10.90;;;;;;;26.57;53.34;100558.56;126171;1099;104176;-75
2021/09/14 10:44:29;;;;;;;21.03;11.30;;;;;;;26.39;52.79;100566.25;126147;1099;104149;-75
2021/09/14 10:47:12;;;;;;;21.42;11.70;;;;;;;26.30;53.28;100562.03;125969;1099;104173;-76
2021/09/14 10:49:49;;;;;;;21.57;12.07;;;;;;;26.30;52.57;100558.44;126063;1099;104214;-75
2021/09/14 10:52:33;;;;;;;20.93;12.07;;;;;;;26.24;52.70;100553.23;126035;1099;104264;-75
2021/09/14 10:55:10;;;;;;;20.10;11.00;;;;;;;26.09;52.04;100562.63;125991;1098;104165;-76
2021/09/14 10:57:43;;;;;;;20.87;10.57;;;;;;;26.01;52.01;100554.78;126207;1099;104406;-79
2021/09/14 11:00:20;;;;;;;19.80;10.93;;;;;;;26.08;52.30;100558.17;126095;1099;104136;-77
2021/09/14 11:02:59;;;;;;;18.47;9.83;;;;;;;26.18;52.21;100547.12;126108;1099;104270;-76
2021/09/14 11:05:35;;;;;;;16.53;9.23;;;;;;;26.27;50.75;100547.77;126230;1099;104214;-77
2021/09/14 11:08:09;;;;;;;18.53;9.23;;;;;;;26.37;51.10;100549.28;126151;1099;104137;-76
2021/09/14 11:10:43;;;;;;;18.10;9.63;;;;;;;26.40;51.25;100540.22;125247;1099;104191;-76
2021/09/14 11:13:30;;;;;;;17.77;9.97;;;;;;;26.39;51.21;100542.03;126127;1099;104190;-77
2021/09/14 11:16:07;;;;;;;21.73;10.67;;;;;;;26.46;51.05;100540.95;125196;1099;104268;-78
2021/09/14 11:18:45;;;;;;;18.37;9.87;;;;;;;26.55;51.10;100546.05;125241;1102;104191;-78
2021/09/14 11:21:20;;;;;;;18.40;9.67;;;;;;;26.58;50.02;100557.64;125255;1099;104150;-78
2021/09/14 11:23:53;;;;;;;19.13;10.10;;;;;;;26.57;50.58;100545.11;125252;1099;104169;-78
2021/09/14 11:26:28;;;;;;;21.80;10.57;;;;;;;26.43;49.81;100559.86;125258;1099;104156;-79
2021/09/14 11:29:01;;;;;;;17.77;9.70;;;;;;;26.25;50.46;100550.50;125271;1099;104226;-78
2021/09/14 11:31:38;;;;;;;17.10;9.90;;;;;;;26.10;50.25;100564.38;125194;1099;104236;-78
2021/09/14 11:34:09;;;;;;;17.70;10.10;;;;;;;26.01;50.40;100546.71;125300;1102;104265;-76
2021/09/14 11:36:43;;;;;;;18.67;9.90;;;;;;;25.92;50.47;100552.30;125304;1099;104246;-79
2021/09/14 11:39:15;;;;;;;21.80;10.43;;;;;;;25.82;50.79;100555.23;125309;1102;104379;-79
2021/09/14 11:41:48;;;;;;;19.35;10.38;;;;;;;25.71;50.46;100554.65;125177;1099;104210;-79
2021/09/14 11:44:28;;;;;;;20.23;10.68;;;;;;;25.60;50.94;100554.02;125231;1099;104290;-79
2021/09/14 11:47:11;;;;;;;19.87;10.83;;;;;;;25.54;50.67;100554.17;125373;1099;104309;-79
2021/09/14 11:49:54;;;;;;;20.97;10.50;;;;;;;25.46;51.19;100552.59;126201;1099;104143;-79
2021/09/14 11:52:31;;;;;;;19.27;10.83;;;;;;;25.45;51.10;100545.44;126234;1099;104197;-78
2021/09/14 11:55:10;;;;;;;23.87;10.60;;;;;;;25.39;51.51;100548.28;126285;1099;104182;-78
2021/09/14 11:57:55;;;;;;;24.53;10.97;;;;;;;25.35;51.13;100549.27;126269;1099;104265;-76
2021/09/14 12:00:42;;;;;;;19.13;10.00;;;;;;;25.29;51.11;100539.58;126155;1099;104255;-78
2021/09/14 12:03:21;;;;;;;24.53;11.43;;;;;;;25.27;51.34;100546.77;126174;1099;107565;-80
2021/09/14 12:06:02;;;;;;;20.70;10.93;;;;;;;25.29;51.70;100550.31;126284;1099;104159;-79
2021/09/14 12:08:42;;;;;;;20.60;10.82;;;;;;;25.31;51.51;100539.53;126277;1098;104187;-79
2021/09/14 12:11:26;;;;;;;20.67;10.43;;;;;;;25.35;51.75;100537.64;126260;1099;104162;-77
2021/09/14 12:14:00;;;;;;;18.90;9.97;;;;;;;25.42;51.45;100533.91;126324;1099;104242;-76
2021/09/14 12:16:37;;;;;;;22.33;10.53;;;;;;;25.52;51.76;100523.80;126240;1099;104162;-76
2021/09/14 12:19:11;;;;;;;18.30;10.77;;;;;;;25.67;51.89;100528.77;126275;1099;104189;-77
2021/09/14 12:21:49;;;;;;;18.30;10.33;;;;;;;25.79;51.81;100525.76;126187;1099;104646;-75
2021/09/14 12:24:22;;;;;;;22.20;10.57;;;;;;;25.92;51.48;100522.73;126321;1099;104284;-76
2021/09/14 12:26:59;;;;;;;16.77;10.03;;;;;;;25.98;51.21;100520.78;126237;1099;104347;-76
2021/09/14 12:29:34;;;;;;;17.83;9.47;;;;;;;26.02;50.86;100521.57;126318;1099;104634;-79
2021/09/14 12:32:06;;;;;;;19.17;9.63;;;;;;;26.09;50.76;100515.11;126136;1099;104194;-76
2021/09/14 12:34:41;;;;;;;16.10;8.37;;;;;;;26.10;50.02;100527.64;126128;1099;104274;-77
2021/09/14 12:37:16;;;;;;;16.83;8.80;;;;;;;26.05;50.20;100521.48;126240;1099;104215;-77
2021/09/14 12:39:48;;;;;;;14.60;8.00;;;;;;;25.95;49.64;100528.91;126321;1099;104242;-78
2021/09/14 12:42:21;;;;;;;16.32;7.80;;;;;;;25.93;48.71;100525.38;126209;1099;104152;-79
2021/09/14 12:44:59;;;;;;;15.53;8.27;;;;;;;25.97;49.17;100519.01;126255;1099;104261;-79
2021/09/14 12:47:32;;;;;;;13.63;7.33;;;;;;;25.96;48.52;100519.02;126230;1099;104213;-79
2021/09/14 12:50:04;;;;;;;12.80;6.90;;;;;;;25.93;47.88;100527.17;126296;1099;105206;-78
2021/09/14 12:52:35;;;;;;;14.03;6.87;;;;;;;25.97;48.12;100520.80;125230;1099;104146;-78
2021/09/14 12:55:09;;;;;;;13.03;7.07;;;;;;;26.06;47.27;100520.58;125346;1099;104181;-78